Time;durP1;ratioP1;P1;durP2;ratioP2;P2;SDS_P1;SDS_P2;PMS_P1;PMS_P2;Temp;Humidity;BMP_temperature;BMP_pressure;BME280_temperature;BME280_humidity;BME280_pressure;Samples;Min_cycle;Max_cycle;Signal;HPM_P1;HPM_P2
2021/12/23 00:00:44;;;;;;;8.73;4.28;;;-2.20;99.90;;;;;;5055685;28;20063;-85
2021/12/23 00:03:10;;;;;;;10.80;4.50;;;-2.20;99.90;;;;;;5055282;28;20063;-85
2021/12/23 00:05:35;;;;;;;8.13;3.85;;;-1.50;99.90;;;;;;5073459;28;20044;-85
2021/12/23 00:08:01;;;;;;;9.77;4.35;;;-2.20;99.90;;;;;;5055388;28;20063;-85
2021/12/23 00:10:27;;;;;;;8.20;3.97;;;-2.20;99.90;;;;;;5055766;28;20056;-85
2021/12/23 00:12:53;;;;;;;7.20;3.58;;;-1.30;99.90;;;;;;5072975;28;20052;-86
2021/12/23 00:15:31;;;;;;;9.88;4.55;;;-2.20;99.90;;;;;;5071482;28;20036;-85
2021/12/23 00:25:36;;;;;;;8.67;4.40;;;-2.10;99.90;;;;;;5053135;28;20049;-85
2021/12/23 00:28:02;;;;;;;9.00;4.38;;;-2.10;99.90;;;;;;5035137;28;20411;-85
2021/12/23 00:30:28;;;;;;;9.90;4.55;;;-2.10;99.90;;;;;;5053188;28;20064;-85
2021/12/23 00:32:56;;;;;;;9.48;4.53;;;-2.10;99.90;;;;;;5058163;28;20036;-85
2021/12/23 00:35:23;;;;;;;9.80;4.80;;;-2.00;99.90;;;;;;5073145;28;20056;-85
2021/12/23 00:37:55;;;;;;;8.60;4.43;;;-2.10;99.90;;;;;;5054988;28;20045;-85
2021/12/23 00:40:21;;;;;;;7.40;4.25;;;-2.00;99.90;;;;;;5072894;28;20504;-85
2021/12/23 00:42:46;;;;;;;8.20;4.22;;;-2.00;99.90;;;;;;5071169;28;20053;-85
2021/12/23 00:45:12;;;;;;;6.90;3.67;;;-2.00;99.90;;;;;;5022767;28;20049;-85
2021/12/23 00:47:37;;;;;;;10.20;4.32;;;-2.00;99.90;;;;;;5052891;28;20416;-85
2021/12/23 00:50:04;;;;;;;8.77;4.10;;;-2.00;99.90;;;;;;5035361;28;20409;-85
2021/12/23 00:52:34;;;;;;;8.10;4.30;;;-1.90;99.90;;;;;;5052836;28;20498;-85
2021/12/23 00:55:02;;;;;;;7.90;4.03;;;-1.90;99.90;;;;;;5066895;28;20048;-85
2021/12/23 00:57:29;;;;;;;10.10;4.75;;;-1.90;99.90;;;;;;5072615;28;20048;-84
2021/12/23 00:59:57;;;;;;;8.35;4.20;;;-1.90;99.90;;;;;;5072781;28;20127;-85
2021/12/23 01:02:26;;;;;;;11.38;4.70;;;-1.80;99.90;;;;;;5072846;28;20053;-84
2021/12/23 01:04:52;;;;;;;10.35;5.00;;;-1.90;99.90;;;;;;5052934;28;20044;-84
2021/12/23 01:07:18;;;;;;;8.68;4.70;;;-1.80;99.90;;;;;;5073114;28;20143;-85
2021/12/23 01:09:44;;;;;;;9.25;4.63;;;-1.80;99.90;;;;;;5072590;28;20057;-85
2021/12/23 01:12:12;;;;;;;9.00;5.20;;;-0.80;99.90;;;;;;5072077;28;20049;-85
2021/12/23 01:19:56;;;;;;;10.07;4.70;;;-1.80;99.90;;;;;;4994332;28;20480;-84
2021/12/23 01:22:23;;;;;;;9.43;4.97;;;-1.70;99.90;;;;;;5010710;28;20058;-85
2021/12/23 01:24:50;;;;;;;9.95;5.18;;;-1.70;99.90;;;;;;5010608;28;20573;-84
2021/12/23 01:27:16;;;;;;;8.48;4.70;;;-1.70;99.90;;;;;;5009744;28;20053;-84
2021/12/23 01:29:42;;;;;;;12.52;6.10;;;-1.70;99.90;;;;;;5010690;28;20069;-84
2021/12/23 01:32:08;;;;;;;11.00;5.15;;;-1.70;99.90;;;;;;4994148;28;20057;-84
2021/12/23 01:34:35;;;;;;;10.25;5.47;;;-1.60;99.90;;;;;;5013664;28;20054;-84
2021/12/23 01:37:05;;;;;;;9.73;4.90;;;-1.70;99.90;;;;;;5006270;28;20050;-84
2021/12/23 01:39:32;;;;;;;9.57;4.55;;;-1.60;99.90;;;;;;4994674;28;20498;-84
2021/12/23 01:41:57;;;;;;;8.10;4.32;;;-1.60;99.90;;;;;;4978176;28;20085;-84
2021/12/23 01:44:23;;;;;;;8.73;4.63;;;-1.60;99.90;;;;;;5011361;28;20050;-84
2021/12/23 01:46:49;;;;;;;11.82;4.78;;;-1.60;99.90;;;;;;5013641;28;20061;-84
2021/12/23 01:49:15;;;;;;;10.07;5.43;;;-1.50;99.90;;;;;;5014288;28;20058;-84
2021/12/23 01:51:41;;;;;;;10.65;5.43;;;-1.50;99.90;;;;;;5014210;28;20371;-84
2021/12/23 01:54:07;;;;;;;9.07;4.43;;;-1.50;99.90;;;;;;5030167;28;20460;-84
2021/12/23 01:56:32;;;;;;;11.05;5.75;;;-1.50;99.90;;;;;;5055847;28;20053;-84
2021/12/23 01:58:58;;;;;;;9.75;5.88;;;-1.40;99.90;;;;;;5071744;28;20078;-85
2021/12/23 02:01:24;;;;;;;14.32;7.80;;;-1.40;99.90;;;;;;5075760;28;20134;-84
2021/12/23 02:03:50;;;;;;;14.93;8.80;;;-1.40;99.90;;;;;;5075819;28;20052;-84
2021/12/23 02:06:16;;;;;;;15.82;8.07;;;-0.70;99.90;;;;;;5075637;28;20603;-84
2021/12/23 02:08:44;;;;;;;16.08;8.55;;;-1.40;99.90;;;;;;5073723;28;20072;-85
2021/12/23 02:11:11;;;;;;;17.30;8.18;;;-1.30;99.90;;;;;;5068767;28;20049;-84
2021/12/23 02:13:38;;;;;;;16.60;9.40;;;-1.30;99.90;;;;;;5074247;28;20401;-84
2021/12/23 02:16:05;;;;;;;17.98;8.00;;;-0.40;99.90;;;;;;5075526;28;20091;-85
2021/12/23 02:18:30;;;;;;;15.40;8.43;;;-1.30;99.90;;;;;;5073328;28;20114;-84
2021/12/23 02:20:57;;;;;;;13.48;7.25;;;-1.10;99.90;;;;;;5075672;28;20048;-84
2021/12/23 02:23:24;;;;;;;19.75;9.15;;;-0.90;99.90;;;;;;5074688;28;20124;-84
2021/12/23 02:25:50;;;;;;;24.05;10.40;;;-1.20;99.90;;;;;;5070091;28;20044;-84
2021/12/23 02:28:17;;;;;;;22.83;9.75;;;-1.10;99.90;;;;;;5037348;28;20052;-84
2021/12/23 02:30:44;;;;;;;18.25;9.52;;;-1.10;99.90;;;;;;5062185;28;20041;-84
2021/12/23 02:33:10;;;;;;;17.88;9.05;;;-1.00;99.90;;;;;;5056562;28;20067;-84
2021/12/23 02:35:37;;;;;;;11.93;6.95;;;-1.00;99.90;;;;;;5074346;28;20049;-85
2021/12/23 02:38:04;;;;;;;15.20;7.57;;;-1.10;99.90;;;;;;5057517;28;20504;-84
2021/12/23 02:40:41;;;;;;;14.23;6.72;;;-1.10;99.90;;;;;;5057080;28;20079;-84
2021/12/23 02:43:23;;;;;;;11.27;6.15;;;-0.50;99.90;;;;;;5074931;28;20486;-84
2021/12/23 02:45:51;;;;;;;12.38;7.53;;;-1.00;99.90;;;;;;5072576;28;20377;-85
2021/12/23 02:48:22;;;;;;;15.43;7.35;;;-1.00;99.90;;;;;;5075008;28;20079;-84
2021/12/23 02:50:51;;;;;;;13.68;7.25;;;-1.00;99.90;;;;;;5057007;28;20057;-84
2021/12/23 02:53:17;;;;;;;15.90;7.78;;;-0.40;99.90;;;;;;5073974;28;20036;-85
2021/12/23 02:55:43;;;;;;;13.43;6.90;;;-1.00;99.90;;;;;;5073274;28;20048;-84
2021/12/23 02:58:09;;;;;;;11.50;6.68;;;-1.00;99.90;;;;;;5074788;28;20059;-85
2021/12/23 03:00:37;;;;;;;14.80;7.78;;;-1.00;99.90;;;;;;5074686;28;20047;-84
2021/12/23 03:03:03;;;;;;;15.35;8.32;;;-1.00;99.90;;;;;;5061117;28;20044;-85
2021/12/23 03:05:29;;;;;;;11.55;6.93;;;-0.90;99.90;;;;;;5055849;28;20064;-84
2021/12/23 03:07:55;;;;;;;12.85;7.28;;;-1.00;99.90;;;;;;5054606;28;20049;-84
2021/12/23 03:10:23;;;;;;;11.85;5.68;;;-1.00;99.90;;;;;;5054513;28;20099;-85
2021/12/23 03:12:51;;;;;;;15.23;7.03;;;-1.00;99.90;;;;;;5054190;28;20553;-85
2021/12/23 03:15:17;;;;;;;11.68;6.38;;;-1.00;99.90;;;;;;5056026;28;20056;-85
2021/12/23 03:17:43;;;;;;;13.32;7.05;;;-1.00;99.90;;;;;;5072649;28;20044;-84
2021/12/23 03:20:10;;;;;;;11.43;5.70;;;-1.00;99.90;;;;;;5074399;28;20416;-85
2021/12/23 03:22:35;;;;;;;13.52;6.80;;;-1.00;99.90;;;;;;5074272;28;20123;-85
2021/12/23 03:25:01;;;;;;;10.27;6.07;;;-0.90;99.90;;;;;;5056562;28;20083;-84
2021/12/23 03:27:27;;;;;;;14.82;6.63;;;-1.50;99.90;;;;;;5053909;28;20053;-85
2021/12/23 03:29:54;;;;;;;9.65;5.28;;;-1.40;99.90;;;;;;5073939;28;20053;-85
2021/12/23 03:32:20;;;;;;;10.68;5.25;;;-0.90;99.90;;;;;;5074151;28;20131;-85
2021/12/23 03:34:46;;;;;;;11.73;5.43;;;-1.00;99.90;;;;;;5073954;28;20091;-85
2021/12/23 03:37:12;;;;;;;12.13;5.28;;;-0.90;99.90;;;;;;5072081;28;20048;-85
2021/12/23 03:39:38;;;;;;;9.98;5.47;;;-0.90;99.90;;;;;;5074235;28;20044;-84
2021/12/23 03:42:04;;;;;;;9.75;4.97;;;-0.90;99.90;;;;;;5073708;28;20119;-85
2021/12/23 03:44:29;;;;;;;10.60;5.25;;;-0.90;99.90;;;;;;5073914;28;20416;-85
2021/12/23 03:46:55;;;;;;;11.98;5.20;;;-1.00;99.90;;;;;;5047957;28;20037;-85
2021/12/23 03:49:21;;;;;;;9.05;4.78;;;-0.90;99.90;;;;;;5036893;28;20131;-85
2021/12/23 03:51:46;;;;;;;11.05;5.85;;;0.00;99.90;;;;;;5053805;28;20132;-84
2021/12/23 03:54:12;;;;;;;9.73;5.43;;;-0.20;99.90;;;;;;5053711;28;20079;-85
2021/12/23 03:56:38;;;;;;;11.38;5.93;;;-0.90;99.90;;;;;;5020333;28;20099;-85
2021/12/23 03:59:03;;;;;;;12.75;5.78;;;-1.00;99.90;;;;;;5054880;28;20053;-84
2021/12/23 04:01:31;;;;;;;11.40;5.65;;;-1.00;99.90;;;;;;5053593;28;20531;-85
2021/12/23 04:03:57;;;;;;;15.18;6.07;;;-1.00;99.90;;;;;;5053674;28;20096;-85
2021/12/23 04:06:23;;;;;;;12.88;5.63;;;-0.90;99.90;;;;;;5053635;28;20147;-84
2021/12/23 04:08:49;;;;;;;11.32;5.80;;;-0.90;99.90;;;;;;5053341;28;20049;-85
2021/12/23 04:11:15;;;;;;;12.48;5.65;;;-0.90;99.90;;;;;;5054446;28;20052;-85
2021/12/23 04:13:41;;;;;;;10.35;5.38;;;-0.90;99.90;;;;;;5053237;28;20053;-85
2021/12/23 04:16:07;;;;;;;9.48;5.43;;;-0.90;99.90;;;;;;5053343;28;20396;-85
2021/12/23 04:18:32;;;;;;;10.73;5.10;;;-0.90;99.90;;;;;;5035286;28;20044;-85
2021/12/23 04:20:58;;;;;;;14.23;6.25;;;0.20;99.90;;;;;;5054185;28;20132;-85
2021/12/23 04:23:27;;;;;;;12.35;6.00;;;-0.90;99.90;;;;;;5053109;28;20166;-85
2021/12/23 04:25:54;;;;;;;11.65;5.97;;;-0.90;99.90;;;;;;5040834;28;20044;-85
2021/12/23 04:28:21;;;;;;;11.05;6.03;;;-0.90;99.90;;;;;;5055758;28;20099;-85
2021/12/23 04:30:47;;;;;;;9.82;5.55;;;-0.90;99.90;;;;;;5071459;28;20456;-85
2021/12/23 04:33:12;;;;;;;10.38;5.28;;;-0.90;99.90;;;;;;5063105;28;20059;-85
2021/12/23 04:35:38;;;;;;;11.20;5.78;;;-0.80;99.90;;;;;;5053122;28;20061;-85
2021/12/23 04:38:04;;;;;;;9.52;5.15;;;0.00;99.90;;;;;;5052851;28;20049;-85
2021/12/23 04:40:34;;;;;;;11.77;6.10;;;-0.80;99.90;;;;;;5053107;28;20080;-81
2021/12/23 04:43:04;;;;;;;10.35;5.65;;;-0.80;99.90;;;;;;5035804;28;20572;-82
2021/12/23 04:45:30;;;;;;;12.57;6.00;;;-0.80;99.90;;;;;;5052922;28;20425;-83
2021/12/23 04:47:56;;;;;;;11.82;5.57;;;-0.80;99.90;;;;;;5053014;28;20057;-82
2021/12/23 04:50:22;;;;;;;11.02;5.70;;;-0.80;99.90;;;;;;5035396;28;20509;-82
2021/12/23 04:52:48;;;;;;;11.18;5.97;;;-0.80;99.90;;;;;;5043549;28;20074;-85
2021/12/23 04:55:15;;;;;;;10.73;5.80;;;0.00;99.90;;;;;;5054795;28;20135;-85
2021/12/23 04:57:41;;;;;;;10.40;5.90;;;-0.80;99.90;;;;;;5054886;28;20048;-85
2021/12/23 05:00:14;;;;;;;11.13;6.10;;;-0.80;99.90;;;;;;5061601;28;20140;-85
2021/12/23 05:02:40;;;;;;;16.88;6.20;;;-0.80;99.90;;;;;;5054749;28;20041;-85
2021/12/23 05:05:06;;;;;;;13.25;7.30;;;0.50;99.90;;;;;;5072587;28;20048;-85
2021/12/23 05:07:32;;;;;;;15.75;7.07;;;-0.70;99.90;;;;;;5072318;28;20051;-85
2021/12/23 05:09:58;;;;;;;11.15;6.28;;;;;;;;;;5079258;28;20064;-85
2021/12/23 05:12:24;;;;;;;16.42;8.45;;;-0.70;99.90;;;;;;5078999;28;20052;-83
2021/12/23 05:14:50;;;;;;;14.18;8.43;;;-0.70;99.90;;;;;;5064058;28;20056;-83
2021/12/23 05:17:16;;;;;;;16.25;9.15;;;-0.60;99.90;;;;;;5059264;28;20090;-83
2021/12/23 05:19:42;;;;;;;14.10;7.32;;;-0.10;99.90;;;;;;5041234;28;20435;-83
2021/12/23 05:22:07;;;;;;;14.25;7.50;;;-0.60;99.90;;;;;;5058939;28;20052;-83
2021/12/23 05:24:33;;;;;;;18.92;9.85;;;-0.60;99.90;;;;;;5042139;28;20057;-83
2021/12/23 05:26:59;;;;;;;18.10;8.55;;;-0.50;99.90;;;;;;5058918;28;20146;-83
2021/12/23 05:29:25;;;;;;;19.05;9.60;;;-0.50;99.90;;;;;;5059239;28;20052;-83
2021/12/23 05:31:51;;;;;;;17.60;8.82;;;-0.50;99.90;;;;;;5041170;28;20056;-83
2021/12/23 05:34:17;;;;;;;16.63;8.65;;;-0.40;99.90;;;;;;5059140;28;20338;-82
2021/12/23 05:36:42;;;;;;;22.20;9.80;;;-0.30;99.90;;;;;;5061009;28;20045;-83
2021/12/23 05:39:08;;;;;;;16.88;8.48;;;1.40;99.90;;;;;;5058996;28;20095;-82
2021/12/23 05:41:34;;;;;;;16.65;8.98;;;-0.30;99.90;;;;;;5058902;28;20044;-83
2021/12/23 05:44:01;;;;;;;16.48;8.32;;;-0.30;99.90;;;;;;5058888;28;20049;-83
2021/12/23 05:46:27;;;;;;;14.70;7.38;;;-0.30;99.90;;;;;;5059855;28;20049;-82
2021/12/23 05:48:53;;;;;;;15.50;7.93;;;-0.30;99.90;;;;;;5059070;28;20072;-83
2021/12/23 05:51:19;;;;;;;15.18;6.43;;;-0.40;99.90;;;;;;5058912;28;20048;-83
2021/12/23 05:53:44;;;;;;;11.32;6.22;;;-0.30;99.90;;;;;;5058841;28;20037;-82
2021/12/23 05:56:10;;;;;;;16.33;8.65;;;-0.30;99.90;;;;;;5059881;28;20056;-83
2021/12/23 05:58:36;;;;;;;16.60;8.93;;;0.20;99.90;;;;;;5040818;28;20558;-82
2021/12/23 06:01:03;;;;;;;17.77;7.93;;;0.50;99.90;;;;;;5058770;28;20095;-83
2021/12/23 06:03:29;;;;;;;17.67;9.40;;;-0.20;99.90;;;;;;5040795;28;20052;-82
2021/12/23 06:05:54;;;;;;;16.23;8.10;;;-0.20;99.90;;;;;;5058944;28;20554;-83
2021/12/23 06:08:20;;;;;;;18.90;8.13;;;0.30;99.90;;;;;;5059682;28;20067;-83
2021/12/23 06:10:46;;;;;;;14.32;7.53;;;-0.20;99.90;;;;;;5058697;28;20053;-83
2021/12/23 06:13:12;;;;;;;16.92;8.43;;;0.40;99.90;;;;;;5066831;28;20496;-82
2021/12/23 06:15:38;;;;;;;15.43;7.47;;;;;;;;;;5078634;28;20056;-83
2021/12/23 06:18:04;;;;;;;13.75;6.50;;;-0.20;99.90;;;;;;5076912;28;20556;-83
2021/12/23 06:20:29;;;;;;;13.85;6.60;;;0.40;99.90;;;;;;5057240;28;20139;-83
2021/12/23 06:22:55;;;;;;;13.82;7.70;;;-0.20;99.90;;;;;;5075809;28;20044;-83
2021/12/23 06:25:21;;;;;;;14.07;7.28;;;0.10;99.90;;;;;;5056989;28;20059;-84
2021/12/23 06:27:47;;;;;;;17.65;9.15;;;-0.20;99.90;;;;;;5038791;28;20060;-83
2021/12/23 06:30:18;;;;;;;18.08;8.88;;;-0.20;99.90;;;;;;5055341;28;20081;-83
2021/12/23 06:32:48;;;;;;;13.98;7.28;;;-0.20;99.90;;;;;;5037598;28;20064;-83
2021/12/23 06:35:15;;;;;;;16.60;6.57;;;0.10;99.90;;;;;;5067660;28;20066;-83
2021/12/23 06:37:42;;;;;;;11.98;5.72;;;0.00;99.90;;;;;;5075070;28;20485;-83
2021/12/23 06:40:08;;;;;;;15.60;7.28;;;-0.20;99.90;;;;;;5073512;28;20052;-83
2021/12/23 06:42:34;;;;;;;11.55;5.78;;;0.70;99.90;;;;;;5056774;28;20550;-84
2021/12/23 06:45:00;;;;;;;12.52;6.20;;;0.70;99.90;;;;;;5074268;28;20048;-83
2021/12/23 06:47:26;;;;;;;14.75;6.03;;;-0.30;99.90;;;;;;5075278;28;20049;-83
2021/12/23 06:49:52;;;;;;;14.23;6.78;;;-0.30;99.90;;;;;;5055292;28;20548;-83
2021/12/23 06:52:18;;;;;;;12.73;6.78;;;-0.30;99.90;;;;;;5057020;28;20057;-83
2021/12/23 06:54:46;;;;;;;22.13;8.77;;;-0.30;99.90;;;;;;5074731;28;20045;-83
2021/12/23 06:57:13;;;;;;;16.25;8.73;;;-0.30;99.90;;;;;;5074079;28;20048;-83
2021/12/23 06:59:39;;;;;;;18.48;8.57;;;-0.10;99.90;;;;;;5055403;28;20061;-83
2021/12/23 07:02:06;;;;;;;19.38;9.15;;;-0.20;99.90;;;;;;5056862;28;20128;-83
2021/12/23 07:04:33;;;;;;;17.52;9.40;;;-0.20;99.90;;;;;;5074765;28;20090;-83
2021/12/23 07:07:10;;;;;;;19.45;9.88;;;-0.10;99.90;;;;;;5054775;28;20061;-83
2021/12/23 07:09:37;;;;;;;18.48;9.75;;;-0.10;99.90;;;;;;5056662;28;20048;-84
2021/12/23 07:12:04;;;;;;;22.05;11.95;;;0.60;99.90;;;;;;5072660;28;20139;-83
2021/12/23 07:14:30;;;;;;;20.15;11.05;;;0.00;99.90;;;;;;5056748;28;20053;-83
2021/12/23 07:16:56;;;;;;;23.27;10.30;;;0.10;99.90;;;;;;5073657;28;20131;-83
2021/12/23 07:19:21;;;;;;;23.45;11.20;;;0.10;99.90;;;;;;5055806;28;20087;-83
2021/12/23 07:21:47;;;;;;;22.83;11.68;;;0.10;99.90;;;;;;5048567;28;20059;-82
2021/12/23 07:24:13;;;;;;;23.73;11.48;;;0.10;99.90;;;;;;5054515;28;20060;-82
2021/12/23 07:26:38;;;;;;;26.98;12.48;;;0.10;99.90;;;;;;5054440;28;20056;-82
2021/12/23 07:29:04;;;;;;;26.15;12.45;;;0.10;99.90;;;;;;5055147;28;20048;-82
2021/12/23 07:31:30;;;;;;;21.85;11.60;;;0.10;99.90;;;;;;5036209;28;20428;-82
2021/12/23 07:33:55;;;;;;;23.42;11.32;;;0.10;99.90;;;;;;5037050;28;20496;-83
2021/12/23 07:36:23;;;;;;;23.98;11.60;;;0.10;99.90;;;;;;5054034;28;20056;-83
2021/12/23 07:38:49;;;;;;;23.42;11.07;;;0.10;99.90;;;;;;5046876;28;20056;-83
2021/12/23 07:41:15;;;;;;;21.17;10.38;;;0.00;99.90;;;;;;5069090;28;20051;-82
2021/12/23 07:46:07;;;;;;;25.13;12.15;;;0.50;99.90;;;;;;5073948;28;20080;-83
2021/12/23 07:48:34;;;;;;;26.40;13.48;;;0.80;99.90;;;;;;5073483;28;20107;-82
2021/12/23 07:51:02;;;;;;;22.13;11.90;;;-0.50;99.90;;;;;;5073058;28;20120;-83
2021/12/23 07:53:28;;;;;;;21.35;11.07;;;0.10;99.90;;;;;;5056387;28;20401;-86
2021/12/23 07:55:53;;;;;;;22.88;11.43;;;0.00;99.90;;;;;;5053952;28;20067;-85
2021/12/23 07:58:19;;;;;;;23.60;12.15;;;0.00;99.90;;;;;;5035846;28;20055;-84
2021/12/23 08:00:45;;;;;;;24.73;13.25;;;0.00;99.90;;;;;;5053621;28;20090;-85
2021/12/23 08:03:11;;;;;;;28.05;13.40;;;0.10;99.90;;;;;;5053083;28;20131;-86
2021/12/23 08:05:37;;;;;;;31.05;14.02;;;0.90;99.90;;;;;;5054257;28;20045;-84
2021/12/23 08:08:03;;;;;;;24.20;12.88;;;0.30;99.90;;;;;;5053401;28;20052;-84
2021/12/23 08:10:29;;;;;;;26.77;13.35;;;0.10;99.90;;;;;;5053369;28;20050;-84
2021/12/23 08:12:55;;;;;;;24.42;13.23;;;0.20;99.90;;;;;;5052914;28;20217;-84
2021/12/23 08:15:21;;;;;;;28.45;14.00;;;0.20;99.90;;;;;;5064339;28;20056;-85
2021/12/23 08:17:47;;;;;;;26.52;13.35;;;0.10;99.90;;;;;;5073157;28;20135;-85
2021/12/23 08:20:14;;;;;;;30.55;14.88;;;0.10;99.90;;;;;;5073339;28;20060;-86
2021/12/23 08:22:40;;;;;;;26.67;14.45;;;0.40;99.90;;;;;;5073027;28;20067;-86
2021/12/23 08:25:06;;;;;;;24.70;13.40;;;0.70;99.90;;;;;;5071422;28;20072;-84
2021/12/23 08:27:34;;;;;;;23.92;12.80;;;0.20;99.90;;;;;;5073134;28;20076;-84
2021/12/23 08:30:00;;;;;;;28.08;14.25;;;0.10;99.90;;;;;;5056194;28;20061;-84
2021/12/23 08:32:26;;;;;;;24.27;12.93;;;0.20;99.90;;;;;;5053049;28;20053;-85
2021/12/23 08:34:52;;;;;;;26.85;12.15;;;0.20;99.90;;;;;;5036083;28;20132;-85
2021/12/23 08:37:18;;;;;;;19.35;11.00;;;0.20;99.90;;;;;;5067399;28;20140;-85
2021/12/23 08:39:44;;;;;;;26.80;13.50;;;0.10;99.90;;;;;;5054902;28;20052;-85
2021/12/23 08:42:10;;;;;;;23.60;12.30;;;1.60;99.90;;;;;;5054601;28;20520;-85
2021/12/23 08:44:40;;;;;;;29.60;14.48;;;0.10;99.90;;;;;;5052546;28;20148;-85
2021/12/23 08:47:06;;;;;;;26.15;13.75;;;0.80;99.90;;;;;;5071937;28;20484;-86
2021/12/23 08:49:32;;;;;;;22.85;12.48;;;0.20;99.90;;;;;;5054662;28;20081;-87
2021/12/23 08:51:58;;;;;;;21.10;11.60;;;0.30;99.90;;;;;;5068470;28;20049;-85
2021/12/23 08:54:23;;;;;;;29.30;13.25;;;1.50;99.90;;;;;;5052607;28;20413;-84
2021/12/23 08:56:49;;;;;;;26.27;11.88;;;0.00;99.90;;;;;;5053638;28;20053;-84
2021/12/23 08:59:15;;;;;;;22.10;11.52;;;0.10;99.90;;;;;;5052701;28;20119;-86
2021/12/23 09:01:42;;;;;;;26.60;12.05;;;0.00;99.90;;;;;;5052729;28;20474;-84
2021/12/23 09:04:07;;;;;;;23.52;12.27;;;0.00;99.90;;;;;;5055004;28;20053;-86
2021/12/23 09:06:33;;;;;;;27.95;13.90;;;0.80;99.90;;;;;;5041765;28;20040;-89
2021/12/23 09:08:59;;;;;;;25.63;12.88;;;0.70;99.90;;;;;;5064671;28;20059;-86
2021/12/23 09:11:25;;;;;;;24.67;13.10;;;0.10;99.90;;;;;;5036979;28;20053;-89
2021/12/23 09:21:41;;;;;;;26.08;12.82;;;0.00;99.90;;;;;;5061183;28;20048;-88
2021/12/23 09:24:07;;;;;;;26.70;13.13;;;0.00;99.90;;;;;;5067553;28;20135;-90
2021/12/23 09:26:37;;;;;;;27.25;13.93;;;0.10;99.90;;;;;;5050867;28;20052;-89
2021/12/23 09:29:11;;;;;;;25.27;13.13;;;0.70;99.90;;;;;;5072162;28;20459;-89
2021/12/23 09:34:20;;;;;;;28.63;13.23;;;0.80;99.90;;;;;;5053817;28;20142;-91
2021/12/23 09:36:46;;;;;;;25.92;13.07;;;0.80;99.90;;;;;;5072234;28;20115;-85
2021/12/23 09:39:12;;;;;;;29.08;13.20;;;0.60;99.90;;;;;;5072129;28;20047;-86
2021/12/23 09:41:43;;;;;;;26.27;13.90;;;0.40;99.90;;;;;;5071412;28;20051;-86
2021/12/23 09:44:10;;;;;;;30.42;13.77;;;1.10;99.90;;;;;;5072262;28;20064;-86
2021/12/23 09:46:37;;;;;;;28.50;13.77;;;0.10;99.90;;;;;;5064881;28;20119;-86
2021/12/23 09:49:06;;;;;;;26.00;13.77;;;0.10;99.90;;;;;;5034027;28;20142;-86
2021/12/23 09:51:33;;;;;;;22.02;12.13;;;0.10;99.90;;;;;;5034539;28;20508;-86
2021/12/23 09:54:05;;;;;;;24.50;12.75;;;0.80;99.90;;;;;;5054332;28;20124;-86
2021/12/23 09:56:32;;;;;;;28.52;13.30;;;0.80;99.90;;;;;;5057811;28;20056;-88
2021/12/23 09:58:59;;;;;;;25.77;13.25;;;0.30;99.90;;;;;;5075850;28;20107;-86
2021/12/23 10:01:26;;;;;;;29.77;14.70;;;-0.40;99.90;;;;;;5075454;28;20054;-86
2021/12/23 10:03:52;;;;;;;29.42;14.15;;;0.50;99.90;;;;;;5057781;28;20127;-83
2021/12/23 10:06:18;;;;;;;31.17;15.38;;;0.20;99.90;;;;;;5074160;28;20460;-82
2021/12/23 10:08:45;;;;;;;30.55;14.48;;;0.20;99.90;;;;;;5075738;28;20114;-82
2021/12/23 10:11:27;;;;;;;30.20;14.13;;;0.40;99.90;;;;;;5057670;28;20094;-82
2021/12/23 10:30:23;;;;;;;34.72;16.05;;;0.20;99.90;;;;;;5075210;28;20048;-83
2021/12/23 10:38:51;;;;;;;35.55;16.20;;;0.20;99.90;;;;;;5332085;22;20057;-87
2021/12/23 10:41:23;;;;;;;37.72;16.63;;;0.30;99.90;;;;;;5006485;28;20442;-82
2021/12/23 10:43:54;;;;;;;32.67;15.80;;;0.20;99.90;;;;;;5034753;28;20119;-83
2021/12/23 10:46:30;;;;;;;36.47;18.05;;;0.80;99.90;;;;;;5016698;28;20088;-82
2021/12/23 10:52:08;;;;;;;32.92;15.75;;;0.20;99.90;;;;;;5015445;28;20111;-82
2021/12/23 11:00:25;;;;;;;39.30;18.10;;;0.20;99.90;;;;;;5015394;28;20057;-90
2021/12/23 11:03:43;;;;;;;37.40;16.98;;;0.20;99.90;;;;;;4980968;28;20092;-88
2021/12/23 11:06:17;;;;;;;40.22;17.60;;;0.20;99.90;;;;;;4935072;29;20111;-90
2021/12/23 11:42:15;;;;;;;35.42;16.85;;;0.30;99.90;;;;;;4948804;28;20133;-85
2021/12/23 11:44:41;;;;;;;38.45;16.35;;;0.30;99.90;;;;;;4972951;28;20094;-87
2021/12/23 11:47:11;;;;;;;44.67;20.35;;;0.30;99.90;;;;;;4973149;28;20051;-87
2021/12/23 11:49:40;;;;;;;44.25;17.45;;;0.40;99.90;;;;;;4973205;28;20059;-86
2021/12/23 11:52:06;;;;;;;36.03;16.27;;;0.60;99.90;;;;;;4956817;28;20130;-85
2021/12/23 11:54:38;;;;;;;38.35;16.98;;;1.00;99.90;;;;;;4972137;28;20047;-88
2021/12/23 11:57:06;;;;;;;40.17;17.90;;;0.30;99.90;;;;;;4978456;28;20047;-86
2021/12/23 11:59:34;;;;;;;35.60;15.93;;;0.40;99.90;;;;;;5032080;28;20069;-89
2021/12/23 12:02:00;;;;;;;44.88;17.58;;;0.40;99.90;;;;;;5033665;28;20052;-85
2021/12/23 12:04:27;;;;;;;32.67;16.23;;;0.10;99.90;;;;;;5033759;28;20401;-90
2021/12/23 12:06:54;;;;;;;41.10;17.70;;;0.40;99.90;;;;;;5033567;28;20562;-90
2021/12/23 12:09:27;;;;;;;42.20;18.52;;;0.40;99.90;;;;;;5033190;28;20064;-91
2021/12/23 12:11:58;;;;;;;38.75;17.95;;;0.40;99.90;;;;;;5033584;28;20056;-91
2021/12/23 12:14:41;;;;;;;43.65;19.27;;;1.10;99.90;;;;;;5034268;28;20061;-90
2021/12/23 12:17:25;;;;;;;38.08;15.65;;;0.80;99.90;;;;;;5027709;28;20053;-87
2021/12/23 12:19:58;;;;;;;37.72;16.42;;;0.40;99.90;;;;;;5014570;28;20081;-92
2021/12/23 12:22:45;;;;;;;38.28;16.20;;;0.40;99.90;;;;;;5015538;28;20058;-90
2021/12/23 12:25:37;;;;;;;39.13;16.45;;;0.40;99.90;;;;;;4998814;28;20056;-88
2021/12/23 12:28:03;;;;;;;39.42;17.85;;;0.40;99.90;;;;;;4935546;29;20066;-86
2021/12/23 12:30:42;;;;;;;36.33;15.98;;;1.90;99.90;;;;;;4948198;29;20039;-84
2021/12/23 12:33:25;;;;;;;42.38;16.90;;;1.20;99.90;;;;;;4936204;29;20511;-88
2021/12/23 12:36:06;;;;;;;41.13;16.13;;;0.50;99.90;;;;;;4936542;29;20150;-86
2021/12/23 12:38:42;;;;;;;42.30;18.10;;;0.50;99.90;;;;;;4953353;29;20551;-87
2021/12/23 12:41:16;;;;;;;29.92;15.65;;;0.50;99.90;;;;;;4952834;29;20421;-88
2021/12/23 12:43:47;;;;;;;42.90;17.95;;;0.50;99.90;;;;;;4953431;29;20066;-88
2021/12/23 12:46:39;;;;;;;40.47;17.77;;;0.50;99.90;;;;;;4953608;29;20059;-90
2021/12/23 12:49:41;;;;;;;37.55;17.58;;;0.10;99.90;;;;;;4952904;29;20055;-91
2021/12/23 12:52:24;;;;;;;33.28;15.85;;;0.50;99.90;;;;;;4936939;29;20392;-89
2021/12/23 12:55:03;;;;;;;33.33;16.80;;;0.40;99.90;;;;;;4921219;29;20047;-90
2021/12/23 12:57:39;;;;;;;34.63;15.98;;;0.60;99.90;;;;;;4952889;29;20051;-91
2021/12/23 13:00:39;;;;;;;38.28;16.27;;;0.20;99.90;;;;;;4952218;28;20059;-91
2021/12/23 13:03:06;;;;;;;40.60;17.33;;;0.60;99.90;;;;;;4937109;28;20062;-93
2021/12/23 13:05:34;;;;;;;33.97;16.15;;;0.30;99.90;;;;;;4978984;28;20145;-93
2021/12/23 13:08:05;;;;;;;33.15;15.27;;;1.10;99.90;;;;;;5013413;28;20561;-91
2021/12/23 13:10:33;;;;;;;31.70;14.63;;;1.00;99.90;;;;;;5014265;28;20140;-92
2021/12/23 13:13:05;;;;;;;35.22;14.30;;;1.00;99.90;;;;;;5012945;28;20056;-89
2021/12/23 13:15:32;;;;;;;37.45;15.82;;;0.60;99.90;;;;;;5001301;28;20119;-88
2021/12/23 13:18:14;;;;;;;31.33;13.55;;;0.60;99.90;;;;;;5033070;28;20112;-92
2021/12/23 13:20:40;;;;;;;33.13;14.43;;;0.60;99.90;;;;;;5031265;28;20087;-89
2021/12/23 13:23:15;;;;;;;30.55;13.43;;;0.60;99.90;;;;;;5015398;28;20398;-89
2021/12/23 13:26:14;;;;;;;29.73;13.98;;;0.60;99.90;;;;;;5032752;28;20054;-89
2021/12/23 13:28:44;;;;;;;36.15;14.75;;;0.60;99.90;;;;;;4918359;29;20056;-92
2021/12/23 13:31:19;;;;;;;35.53;15.25;;;0.60;99.90;;;;;;4935455;29;20068;-84
2021/12/23 13:33:55;;;;;;;30.05;13.27;;;0.60;99.90;;;;;;4919467;29;20548;-88
2021/12/23 13:36:31;;;;;;;35.97;15.20;;;0.50;99.90;;;;;;4919003;29;20175;-88
2021/12/23 13:39:03;;;;;;;37.10;17.20;;;1.00;99.90;;;;;;4909743;29;20484;-90
2021/12/23 13:41:44;;;;;;;41.47;18.23;;;0.60;99.90;;;;;;4920483;29;20616;-90
2021/12/23 13:44:15;;;;;;;36.28;15.82;;;0.60;99.90;;;;;;4937178;29;20521;-91
2021/12/23 13:47:01;;;;;;;33.58;15.13;;;0.60;99.90;;;;;;4937043;29;20070;-82
2021/12/23 13:49:34;;;;;;;39.55;17.55;;;0.60;99.90;;;;;;4920907;29;20248;-88
2021/12/23 13:52:00;;;;;;;37.08;16.67;;;0.70;99.90;;;;;;4931298;29;20056;-90
2021/12/23 13:54:36;;;;;;;38.55;16.58;;;1.20;99.90;;;;;;4917754;29;20060;-89
2021/12/23 13:57:08;;;;;;;36.90;16.65;;;0.60;99.90;;;;;;4902156;29;20408;-90
2021/12/23 13:59:34;;;;;;;42.15;16.77;;;0.60;99.90;;;;;;4936777;29;20557;-86
2021/12/23 14:02:13;;;;;;;40.08;17.35;;;-0.10;99.90;;;;;;4936800;29;20051;-93
2021/12/23 14:04:42;;;;;;;40.75;17.63;;;0.70;99.90;;;;;;4948272;28;20087;-91
2021/12/23 14:07:28;;;;;;;39.05;17.23;;;0.70;99.90;;;;;;5017482;28;20042;-88
2021/12/23 14:09:58;;;;;;;32.90;14.93;;;1.30;99.90;;;;;;5017259;28;20052;-87
2021/12/23 14:12:43;;;;;;;35.15;15.18;;;1.20;99.90;;;;;;5015768;28;20053;-88
2021/12/23 14:15:17;;;;;;;38.72;16.80;;;0.70;99.90;;;;;;4995828;28;20435;-90